sensor_id;sensor_type;location;lat;lon;timestamp;P1;durP1;ratioP1;P2;durP2;ratioP2
60730;SDS011;46580;52.114;11.674;2023-04-16T00:02:03;40.17;;;25.17;;
60730;SDS011;46580;52.114;11.674;2023-04-16T00:04:28;36.63;;;24.57;;
60730;SDS011;46580;52.114;11.674;2023-04-16T00:06:54;40.07;;;25.00;;
60730;SDS011;46580;52.114;11.674;2023-04-16T00:09:19;37.63;;;25.20;;
60730;SDS011;46580;52.114;11.674;2023-04-16T00:11:45;37.27;;;24.30;;
60730;SDS011;46580;52.114;11.674;2023-04-16T00:14:10;44.47;;;26.03;;
60730;SDS011;46580;52.114;11.674;2023-04-16T00:16:35;40.13;;;25.37;;
60730;SDS011;46580;52.114;11.674;2023-04-16T00:19:02;43.67;;;25.90;;
60730;SDS011;46580;52.114;11.674;2023-04-16T00:21:27;39.23;;;25.60;;
60730;SDS011;46580;52.114;11.674;2023-04-16T00:23:53;42.57;;;25.83;;
60730;SDS011;46580;52.114;11.674;2023-04-16T00:26:18;45.17;;;25.67;;
60730;SDS011;46580;52.114;11.674;2023-04-16T00:28:43;41.27;;;26.20;;
60730;SDS011;46580;52.114;11.674;2023-04-16T00:31:09;43.23;;;26.10;;
60730;SDS011;46580;52.114;11.674;2023-04-16T00:33:34;37.73;;;25.37;;
60730;SDS011;46580;52.114;11.674;2023-04-16T00:36:00;38.23;;;25.20;;
60730;SDS011;46580;52.114;11.674;2023-04-16T00:38:25;37.30;;;24.23;;
60730;SDS011;46580;52.114;11.674;2023-04-16T00:41:09;33.90;;;22.57;;
60730;SDS011;46580;52.114;11.674;2023-04-16T00:43:34;40.87;;;22.80;;
60730;SDS011;46580;52.114;11.674;2023-04-16T00:45:59;35.00;;;23.53;;
60730;SDS011;46580;52.114;11.674;2023-04-16T00:48:28;36.30;;;21.77;;
60730;SDS011;46580;52.114;11.674;2023-04-16T00:50:55;42.93;;;22.33;;
60730;SDS011;46580;52.114;11.674;2023-04-16T00:53:21;32.83;;;22.33;;
60730;SDS011;46580;52.114;11.674;2023-04-16T00:55:46;34.03;;;21.27;;
60730;SDS011;46580;52.114;11.674;2023-04-16T00:58:12;31.90;;;20.90;;
60730;SDS011;46580;52.114;11.674;2023-04-16T01:00:37;36.63;;;21.77;;
60730;SDS011;46580;52.114;11.674;2023-04-16T01:03:02;34.63;;;22.30;;
60730;SDS011;46580;52.114;11.674;2023-04-16T01:05:29;34.77;;;21.73;;
60730;SDS011;46580;52.114;11.674;2023-04-16T01:07:56;35.80;;;22.93;;
60730;SDS011;46580;52.114;11.674;2023-04-16T01:10:23;35.47;;;21.07;;
60730;SDS011;46580;52.114;11.674;2023-04-16T01:12:49;34.57;;;21.03;;
60730;SDS011;46580;52.114;11.674;2023-04-16T01:15:14;35.83;;;21.37;;
60730;SDS011;46580;52.114;11.674;2023-04-16T01:17:39;29.93;;;21.00;;
60730;SDS011;46580;52.114;11.674;2023-04-16T01:20:05;32.97;;;21.17;;
60730;SDS011;46580;52.114;11.674;2023-04-16T01:22:30;31.30;;;21.40;;
60730;SDS011;46580;52.114;11.674;2023-04-16T01:24:55;32.23;;;20.30;;
60730;SDS011;46580;52.114;11.674;2023-04-16T01:27:21;31.43;;;21.00;;
60730;SDS011;46580;52.114;11.674;2023-04-16T01:29:46;35.77;;;21.47;;
60730;SDS011;46580;52.114;11.674;2023-04-16T01:32:11;28.80;;;19.00;;
60730;SDS011;46580;52.114;11.674;2023-04-16T01:34:37;27.10;;;17.37;;
60730;SDS011;46580;52.114;11.674;2023-04-16T01:37:02;26.63;;;17.27;;
60730;SDS011;46580;52.114;11.674;2023-04-16T01:39:28;23.83;;;17.60;;
60730;SDS011;46580;52.114;11.674;2023-04-16T01:41:53;28.47;;;18.63;;
60730;SDS011;46580;52.114;11.674;2023-04-16T01:44:19;30.67;;;18.60;;
60730;SDS011;46580;52.114;11.674;2023-04-16T01:46:45;28.20;;;18.73;;
60730;SDS011;46580;52.114;11.674;2023-04-16T01:49:11;27.97;;;18.27;;
60730;SDS011;46580;52.114;11.674;2023-04-16T01:51:36;29.33;;;17.83;;
60730;SDS011;46580;52.114;11.674;2023-04-16T01:54:02;26.83;;;17.10;;
60730;SDS011;46580;52.114;11.674;2023-04-16T01:56:28;27.93;;;17.03;;
60730;SDS011;46580;52.114;11.674;2023-04-16T01:58:53;27.37;;;17.80;;
60730;SDS011;46580;52.114;11.674;2023-04-16T02:01:18;26.57;;;18.70;;
60730;SDS011;46580;52.114;11.674;2023-04-16T02:03:49;29.63;;;18.20;;
60730;SDS011;46580;52.114;11.674;2023-04-16T02:06:15;30.90;;;17.80;;
60730;SDS011;46580;52.114;11.674;2023-04-16T02:08:40;31.10;;;18.57;;
60730;SDS011;46580;52.114;11.674;2023-04-16T02:11:06;28.47;;;18.57;;
60730;SDS011;46580;52.114;11.674;2023-04-16T02:13:31;29.53;;;18.93;;
60730;SDS011;46580;52.114;11.674;2023-04-16T02:15:57;28.90;;;18.37;;
60730;SDS011;46580;52.114;11.674;2023-04-16T02:18:22;30.73;;;19.47;;
60730;SDS011;46580;52.114;11.674;2023-04-16T02:20:47;26.93;;;18.53;;
60730;SDS011;46580;52.114;11.674;2023-04-16T02:23:16;28.97;;;18.83;;
60730;SDS011;46580;52.114;11.674;2023-04-16T02:25:42;28.23;;;19.07;;
60730;SDS011;46580;52.114;11.674;2023-04-16T02:28:09;33.30;;;19.40;;
60730;SDS011;46580;52.114;11.674;2023-04-16T02:30:36;30.43;;;20.17;;
60730;SDS011;46580;52.114;11.674;2023-04-16T02:33:03;31.50;;;19.00;;
60730;SDS011;46580;52.114;11.674;2023-04-16T02:35:30;31.63;;;19.07;;
60730;SDS011;46580;52.114;11.674;2023-04-16T02:37:56;35.73;;;21.10;;
60730;SDS011;46580;52.114;11.674;2023-04-16T02:40:25;31.43;;;20.37;;
60730;SDS011;46580;52.114;11.674;2023-04-16T02:42:51;29.07;;;19.33;;
60730;SDS011;46580;52.114;11.674;2023-04-16T02:45:17;32.63;;;19.07;;
60730;SDS011;46580;52.114;11.674;2023-04-16T02:47:43;33.30;;;20.40;;
60730;SDS011;46580;52.114;11.674;2023-04-16T02:50:08;30.13;;;19.67;;
60730;SDS011;46580;52.114;11.674;2023-04-16T02:52:34;27.77;;;19.13;;
60730;SDS011;46580;52.114;11.674;2023-04-16T02:54:59;30.60;;;20.63;;
60730;SDS011;46580;52.114;11.674;2023-04-16T02:57:25;30.07;;;20.07;;
60730;SDS011;46580;52.114;11.674;2023-04-16T02:59:50;38.90;;;21.43;;
60730;SDS011;46580;52.114;11.674;2023-04-16T03:02:15;35.30;;;21.33;;
60730;SDS011;46580;52.114;11.674;2023-04-16T03:04:41;35.30;;;20.10;;
60730;SDS011;46580;52.114;11.674;2023-04-16T03:07:06;31.63;;;20.20;;
60730;SDS011;46580;52.114;11.674;2023-04-16T03:09:33;32.27;;;20.13;;
60730;SDS011;46580;52.114;11.674;2023-04-16T03:11:59;30.87;;;20.07;;
60730;SDS011;46580;52.114;11.674;2023-04-16T03:14:25;30.63;;;19.37;;
60730;SDS011;46580;52.114;11.674;2023-04-16T03:16:51;29.23;;;18.63;;
60730;SDS011;46580;52.114;11.674;2023-04-16T03:19:16;33.80;;;20.03;;
60730;SDS011;46580;52.114;11.674;2023-04-16T03:21:41;35.80;;;19.87;;
60730;SDS011;46580;52.114;11.674;2023-04-16T03:24:06;28.93;;;19.57;;
60730;SDS011;46580;52.114;11.674;2023-04-16T03:26:32;34.00;;;21.67;;
60730;SDS011;46580;52.114;11.674;2023-04-16T03:28:57;34.37;;;20.13;;
60730;SDS011;46580;52.114;11.674;2023-04-16T03:31:23;30.73;;;19.67;;
60730;SDS011;46580;52.114;11.674;2023-04-16T03:33:48;32.13;;;18.93;;
60730;SDS011;46580;52.114;11.674;2023-04-16T03:36:14;27.17;;;19.17;;
60730;SDS011;46580;52.114;11.674;2023-04-16T03:38:39;28.67;;;18.00;;
60730;SDS011;46580;52.114;11.674;2023-04-16T03:41:05;33.57;;;18.43;;
60730;SDS011;46580;52.114;11.674;2023-04-16T03:43:30;32.03;;;20.10;;
60730;SDS011;46580;52.114;11.674;2023-04-16T03:45:55;30.53;;;20.30;;
60730;SDS011;46580;52.114;11.674;2023-04-16T03:48:21;28.60;;;19.10;;
60730;SDS011;46580;52.114;11.674;2023-04-16T03:50:46;32.53;;;19.63;;
60730;SDS011;46580;52.114;11.674;2023-04-16T03:53:12;29.13;;;19.30;;
60730;SDS011;46580;52.114;11.674;2023-04-16T03:55:38;36.37;;;20.17;;
60730;SDS011;46580;52.114;11.674;2023-04-16T03:58:04;31.57;;;19.53;;
60730;SDS011;46580;52.114;11.674;2023-04-16T04:00:29;31.37;;;19.37;;
60730;SDS011;46580;52.114;11.674;2023-04-16T04:02:55;30.47;;;19.87;;
60730;SDS011;46580;52.114;11.674;2023-04-16T04:05:20;34.73;;;21.27;;
60730;SDS011;46580;52.114;11.674;2023-04-16T04:07:46;33.67;;;20.43;;
60730;SDS011;46580;52.114;11.674;2023-04-16T04:10:11;37.20;;;20.60;;
60730;SDS011;46580;52.114;11.674;2023-04-16T04:12:37;33.40;;;20.73;;
60730;SDS011;46580;52.114;11.674;2023-04-16T04:15:02;34.40;;;19.87;;
60730;SDS011;46580;52.114;11.674;2023-04-16T04:17:28;30.07;;;20.80;;
60730;SDS011;46580;52.114;11.674;2023-04-16T04:19:53;35.37;;;20.33;;
60730;SDS011;46580;52.114;11.674;2023-04-16T04:22:18;37.57;;;21.10;;
60730;SDS011;46580;52.114;11.674;2023-04-16T04:24:43;34.20;;;20.87;;
60730;SDS011;46580;52.114;11.674;2023-04-16T04:27:09;30.87;;;19.83;;
60730;SDS011;46580;52.114;11.674;2023-04-16T04:29:34;32.90;;;19.10;;
60730;SDS011;46580;52.114;11.674;2023-04-16T04:31:59;29.83;;;20.17;;
60730;SDS011;46580;52.114;11.674;2023-04-16T04:34:25;32.97;;;19.27;;
60730;SDS011;46580;52.114;11.674;2023-04-16T04:36:50;28.00;;;17.17;;
60730;SDS011;46580;52.114;11.674;2023-04-16T04:39:15;30.00;;;19.53;;
60730;SDS011;46580;52.114;11.674;2023-04-16T04:41:41;30.63;;;19.13;;
60730;SDS011;46580;52.114;11.674;2023-04-16T04:44:06;27.27;;;17.37;;
60730;SDS011;46580;52.114;11.674;2023-04-16T04:46:31;32.07;;;19.83;;
60730;SDS011;46580;52.114;11.674;2023-04-16T04:48:57;33.43;;;21.00;;
60730;SDS011;46580;52.114;11.674;2023-04-16T04:51:22;35.47;;;19.90;;
60730;SDS011;46580;52.114;11.674;2023-04-16T04:53:47;35.50;;;20.37;;
60730;SDS011;46580;52.114;11.674;2023-04-16T04:56:13;37.20;;;19.90;;
60730;SDS011;46580;52.114;11.674;2023-04-16T04:58:38;31.20;;;19.40;;
60730;SDS011;46580;52.114;11.674;2023-04-16T05:01:04;34.03;;;20.37;;
60730;SDS011;46580;52.114;11.674;2023-04-16T05:03:30;32.03;;;20.30;;
60730;SDS011;46580;52.114;11.674;2023-04-16T05:05:55;32.80;;;20.07;;
60730;SDS011;46580;52.114;11.674;2023-04-16T05:08:20;35.77;;;21.30;;
60730;SDS011;46580;52.114;11.674;2023-04-16T05:10:46;42.40;;;21.77;;
60730;SDS011;46580;52.114;11.674;2023-04-16T05:13:11;41.53;;;20.73;;
60730;SDS011;46580;52.114;11.674;2023-04-16T05:15:36;37.13;;;21.17;;
60730;SDS011;46580;52.114;11.674;2023-04-16T05:18:02;35.20;;;21.47;;
60730;SDS011;46580;52.114;11.674;2023-04-16T05:20:27;38.40;;;20.57;;
60730;SDS011;46580;52.114;11.674;2023-04-16T05:22:52;34.17;;;21.50;;
60730;SDS011;46580;52.114;11.674;2023-04-16T05:25:19;32.93;;;22.33;;
60730;SDS011;46580;52.114;11.674;2023-04-16T05:27:45;34.97;;;22.53;;
60730;SDS011;46580;52.114;11.674;2023-04-16T05:30:10;35.60;;;22.43;;
60730;SDS011;46580;52.114;11.674;2023-04-16T05:32:37;38.20;;;23.43;;
60730;SDS011;46580;52.114;11.674;2023-04-16T05:35:03;39.50;;;23.57;;
60730;SDS011;46580;52.114;11.674;2023-04-16T05:37:29;44.87;;;22.80;;
60730;SDS011;46580;52.114;11.674;2023-04-16T05:39:54;39.10;;;24.53;;
60730;SDS011;46580;52.114;11.674;2023-04-16T05:42:20;39.30;;;23.37;;
60730;SDS011;46580;52.114;11.674;2023-04-16T05:44:45;34.20;;;22.43;;
60730;SDS011;46580;52.114;11.674;2023-04-16T05:47:10;38.53;;;23.07;;
60730;SDS011;46580;52.114;11.674;2023-04-16T05:49:36;35.13;;;22.43;;
60730;SDS011;46580;52.114;11.674;2023-04-16T05:52:02;48.67;;;24.67;;
60730;SDS011;46580;52.114;11.674;2023-04-16T05:54:28;40.70;;;24.07;;
60730;SDS011;46580;52.114;11.674;2023-04-16T05:56:53;42.97;;;24.80;;
60730;SDS011;46580;52.114;11.674;2023-04-16T05:59:18;45.90;;;27.37;;
60730;SDS011;46580;52.114;11.674;2023-04-16T06:01:44;48.53;;;25.37;;
60730;SDS011;46580;52.114;11.674;2023-04-16T06:04:10;50.63;;;25.90;;
60730;SDS011;46580;52.114;11.674;2023-04-16T06:06:35;49.07;;;26.60;;
60730;SDS011;46580;52.114;11.674;2023-04-16T06:09:01;44.30;;;26.87;;
60730;SDS011;46580;52.114;11.674;2023-04-16T06:11:28;39.53;;;24.67;;
60730;SDS011;46580;52.114;11.674;2023-04-16T06:13:54;43.23;;;25.47;;
60730;SDS011;46580;52.114;11.674;2023-04-16T06:16:20;43.40;;;24.77;;
60730;SDS011;46580;52.114;11.674;2023-04-16T06:18:45;45.47;;;24.93;;
60730;SDS011;46580;52.114;11.674;2023-04-16T06:21:10;41.80;;;25.03;;
60730;SDS011;46580;52.114;11.674;2023-04-16T06:23:36;44.57;;;26.03;;
60730;SDS011;46580;52.114;11.674;2023-04-16T06:26:01;39.17;;;24.83;;
60730;SDS011;46580;52.114;11.674;2023-04-16T06:28:27;47.23;;;26.80;;
60730;SDS011;46580;52.114;11.674;2023-04-16T06:30:52;38.80;;;23.97;;
60730;SDS011;46580;52.114;11.674;2023-04-16T06:33:17;38.23;;;23.40;;
60730;SDS011;46580;52.114;11.674;2023-04-16T06:35:43;36.53;;;22.93;;
60730;SDS011;46580;52.114;11.674;2023-04-16T06:38:08;35.40;;;22.17;;
60730;SDS011;46580;52.114;11.674;2023-04-16T06:40:33;38.43;;;23.53;;
60730;SDS011;46580;52.114;11.674;2023-04-16T06:43:01;38.17;;;22.93;;
60730;SDS011;46580;52.114;11.674;2023-04-16T06:45:26;35.40;;;21.93;;
60730;SDS011;46580;52.114;11.674;2023-04-16T06:47:51;38.77;;;22.70;;
60730;SDS011;46580;52.114;11.674;2023-04-16T06:50:17;37.33;;;22.83;;
60730;SDS011;46580;52.114;11.674;2023-04-16T06:52:42;36.93;;;21.70;;
60730;SDS011;46580;52.114;11.674;2023-04-16T06:55:08;33.57;;;20.43;;
60730;SDS011;46580;52.114;11.674;2023-04-16T06:57:34;34.80;;;22.07;;
60730;SDS011;46580;52.114;11.674;2023-04-16T06:59:59;36.30;;;22.50;;
60730;SDS011;46580;52.114;11.674;2023-04-16T07:02:25;39.37;;;23.87;;
60730;SDS011;46580;52.114;11.674;2023-04-16T07:04:50;40.80;;;24.37;;
60730;SDS011;46580;52.114;11.674;2023-04-16T07:07:16;44.53;;;23.83;;
60730;SDS011;46580;52.114;11.674;2023-04-16T07:09:42;41.30;;;24.27;;
60730;SDS011;46580;52.114;11.674;2023-04-16T07:12:07;41.13;;;24.13;;
60730;SDS011;46580;52.114;11.674;2023-04-16T07:14:33;36.07;;;22.27;;
60730;SDS011;46580;52.114;11.674;2023-04-16T07:16:58;40.40;;;24.13;;
60730;SDS011;46580;52.114;11.674;2023-04-16T07:19:23;41.73;;;23.40;;
60730;SDS011;46580;52.114;11.674;2023-04-16T07:21:49;36.27;;;21.57;;
60730;SDS011;46580;52.114;11.674;2023-04-16T07:24:14;34.17;;;21.20;;
60730;SDS011;46580;52.114;11.674;2023-04-16T07:26:40;39.53;;;22.00;;
60730;SDS011;46580;52.114;11.674;2023-04-16T07:29:05;43.47;;;23.10;;
60730;SDS011;46580;52.114;11.674;2023-04-16T07:31:30;43.93;;;23.70;;
60730;SDS011;46580;52.114;11.674;2023-04-16T07:33:56;42.47;;;23.30;;
60730;SDS011;46580;52.114;11.674;2023-04-16T07:36:22;38.63;;;22.43;;
60730;SDS011;46580;52.114;11.674;2023-04-16T07:38:47;40.80;;;21.70;;
60730;SDS011;46580;52.114;11.674;2023-04-16T07:41:13;46.43;;;22.83;;
60730;SDS011;46580;52.114;11.674;2023-04-16T07:43:40;38.57;;;23.00;;
60730;SDS011;46580;52.114;11.674;2023-04-16T07:46:05;41.97;;;24.53;;
60730;SDS011;46580;52.114;11.674;2023-04-16T07:48:31;38.80;;;22.40;;
60730;SDS011;46580;52.114;11.674;2023-04-16T07:50:56;44.67;;;23.03;;
60730;SDS011;46580;52.114;11.674;2023-04-16T07:53:22;39.27;;;23.13;;
60730;SDS011;46580;52.114;11.674;2023-04-16T07:55:47;49.30;;;24.10;;
60730;SDS011;46580;52.114;11.674;2023-04-16T07:58:12;41.90;;;24.10;;
60730;SDS011;46580;52.114;11.674;2023-04-16T08:00:38;45.93;;;23.57;;
60730;SDS011;46580;52.114;11.674;2023-04-16T08:03:03;40.23;;;24.27;;
60730;SDS011;46580;52.114;11.674;2023-04-16T08:05:29;40.97;;;24.40;;
60730;SDS011;46580;52.114;11.674;2023-04-16T08:07:54;43.00;;;24.07;;
60730;SDS011;46580;52.114;11.674;2023-04-16T08:10:20;40.33;;;25.30;;
60730;SDS011;46580;52.114;11.674;2023-04-16T08:12:45;41.30;;;24.83;;
60730;SDS011;46580;52.114;11.674;2023-04-16T08:15:11;41.60;;;24.37;;
60730;SDS011;46580;52.114;11.674;2023-04-16T08:17:36;41.70;;;23.80;;
60730;SDS011;46580;52.114;11.674;2023-04-16T08:20:02;35.90;;;21.83;;
60730;SDS011;46580;52.114;11.674;2023-04-16T08:22:28;39.03;;;22.83;;
60730;SDS011;46580;52.114;11.674;2023-04-16T08:24:54;37.33;;;23.03;;
60730;SDS011;46580;52.114;11.674;2023-04-16T08:27:19;37.50;;;22.23;;
60730;SDS011;46580;52.114;11.674;2023-04-16T08:29:45;39.73;;;23.20;;
60730;SDS011;46580;52.114;11.674;2023-04-16T08:32:10;45.80;;;22.93;;
60730;SDS011;46580;52.114;11.674;2023-04-16T08:34:36;35.50;;;22.53;;
60730;SDS011;46580;52.114;11.674;2023-04-16T08:37:01;37.07;;;21.37;;
60730;SDS011;46580;52.114;11.674;2023-04-16T08:39:27;33.70;;;20.00;;
60730;SDS011;46580;52.114;11.674;2023-04-16T08:41:53;36.60;;;20.80;;
60730;SDS011;46580;52.114;11.674;2023-04-16T08:44:20;38.47;;;21.07;;
60730;SDS011;46580;52.114;11.674;2023-04-16T08:46:49;36.40;;;22.03;;
60730;SDS011;46580;52.114;11.674;2023-04-16T08:49:21;41.70;;;22.90;;
60730;SDS011;46580;52.114;11.674;2023-04-16T08:51:51;39.43;;;22.83;;
60730;SDS011;46580;52.114;11.674;2023-04-16T08:54:30;41.53;;;23.20;;
60730;SDS011;46580;52.114;11.674;2023-04-16T08:56:58;46.40;;;24.03;;
60730;SDS011;46580;52.114;11.674;2023-04-16T08:59:24;42.57;;;24.23;;
60730;SDS011;46580;52.114;11.674;2023-04-16T09:01:50;42.47;;;24.20;;
60730;SDS011;46580;52.114;11.674;2023-04-16T09:04:17;41.07;;;22.73;;
60730;SDS011;46580;52.114;11.674;2023-04-16T09:06:45;39.70;;;24.30;;
60730;SDS011;46580;52.114;11.674;2023-04-16T09:09:15;40.57;;;22.07;;
60730;SDS011;46580;52.114;11.674;2023-04-16T09:11:41;39.40;;;22.97;;
60730;SDS011;46580;52.114;11.674;2023-04-16T09:14:08;38.07;;;22.93;;
60730;SDS011;46580;52.114;11.674;2023-04-16T09:16:35;39.50;;;22.60;;
60730;SDS011;46580;52.114;11.674;2023-04-16T09:19:00;37.40;;;22.87;;
60730;SDS011;46580;52.114;11.674;2023-04-16T09:21:27;36.27;;;21.30;;
60730;SDS011;46580;52.114;11.674;2023-04-16T09:23:53;46.63;;;23.37;;
60730;SDS011;46580;52.114;11.674;2023-04-16T09:26:19;36.83;;;21.50;;
60730;SDS011;46580;52.114;11.674;2023-04-16T09:28:46;36.47;;;22.07;;
60730;SDS011;46580;52.114;11.674;2023-04-16T09:31:14;39.50;;;23.37;;
60730;SDS011;46580;52.114;11.674;2023-04-16T09:33:40;37.93;;;23.07;;
60730;SDS011;46580;52.114;11.674;2023-04-16T09:36:07;39.30;;;24.13;;
60730;SDS011;46580;52.114;11.674;2023-04-16T09:38:46;42.97;;;23.87;;
60730;SDS011;46580;52.114;11.674;2023-04-16T09:41:15;39.23;;;22.73;;
60730;SDS011;46580;52.114;11.674;2023-04-16T09:43:48;37.07;;;21.63;;
60730;SDS011;46580;52.114;11.674;2023-04-16T09:46:29;36.03;;;22.57;;
60730;SDS011;46580;52.114;11.674;2023-04-16T09:48:55;41.47;;;23.27;;
60730;SDS011;46580;52.114;11.674;2023-04-16T09:51:21;34.20;;;21.77;;
60730;SDS011;46580;52.114;11.674;2023-04-16T09:53:47;40.23;;;23.00;;
60730;SDS011;46580;52.114;11.674;2023-04-16T09:56:15;46.20;;;23.47;;
60730;SDS011;46580;52.114;11.674;2023-04-16T09:58:41;37.53;;;22.50;;
60730;SDS011;46580;52.114;11.674;2023-04-16T10:01:11;39.97;;;23.33;;
60730;SDS011;46580;52.114;11.674;2023-04-16T10:03:37;46.53;;;28.73;;
60730;SDS011;46580;52.114;11.674;2023-04-16T10:06:07;45.50;;;27.30;;
60730;SDS011;46580;52.114;11.674;2023-04-16T10:08:44;47.33;;;26.93;;
60730;SDS011;46580;52.114;11.674;2023-04-16T10:11:11;39.73;;;23.83;;
60730;SDS011;46580;52.114;11.674;2023-04-16T10:13:36;44.17;;;25.40;;
60730;SDS011;46580;52.114;11.674;2023-04-16T10:16:02;40.60;;;23.83;;
60730;SDS011;46580;52.114;11.674;2023-04-16T10:18:27;37.80;;;22.80;;
60730;SDS011;46580;52.114;11.674;2023-04-16T10:20:53;41.53;;;24.43;;
60730;SDS011;46580;52.114;11.674;2023-04-16T10:23:20;46.80;;;26.27;;
60730;SDS011;46580;52.114;11.674;2023-04-16T10:25:49;41.37;;;24.40;;
60730;SDS011;46580;52.114;11.674;2023-04-16T10:28:16;44.77;;;23.00;;
60730;SDS011;46580;52.114;11.674;2023-04-16T10:30:43;44.67;;;23.27;;
60730;SDS011;46580;52.114;11.674;2023-04-16T10:33:18;39.43;;;22.43;;
60730;SDS011;46580;52.114;11.674;2023-04-16T10:35:46;39.40;;;21.67;;
60730;SDS011;46580;52.114;11.674;2023-04-16T10:38:30;36.27;;;21.37;;
60730;SDS011;46580;52.114;11.674;2023-04-16T10:41:03;39.00;;;22.33;;
60730;SDS011;46580;52.114;11.674;2023-04-16T10:43:31;36.30;;;21.90;;
60730;SDS011;46580;52.114;11.674;2023-04-16T10:46:15;41.90;;;21.70;;
60730;SDS011;46580;52.114;11.674;2023-04-16T10:48:49;37.33;;;22.10;;
60730;SDS011;46580;52.114;11.674;2023-04-16T10:51:26;39.40;;;23.73;;
60730;SDS011;46580;52.114;11.674;2023-04-16T10:53:54;34.47;;;19.73;;
60730;SDS011;46580;52.114;11.674;2023-04-16T10:56:24;33.77;;;19.80;;
60730;SDS011;46580;52.114;11.674;2023-04-16T10:58:53;34.33;;;20.93;;
60730;SDS011;46580;52.114;11.674;2023-04-16T11:01:25;32.03;;;19.67;;
60730;SDS011;46580;52.114;11.674;2023-04-16T11:03:55;35.20;;;19.73;;
60730;SDS011;46580;52.114;11.674;2023-04-16T11:06:23;37.97;;;18.47;;
60730;SDS011;46580;52.114;11.674;2023-04-16T11:08:50;36.10;;;20.30;;
60730;SDS011;46580;52.114;11.674;2023-04-16T11:11:19;35.10;;;18.07;;
60730;SDS011;46580;52.114;11.674;2023-04-16T11:13:45;35.67;;;20.27;;
60730;SDS011;46580;52.114;11.674;2023-04-16T11:16:12;29.23;;;18.17;;
60730;SDS011;46580;52.114;11.674;2023-04-16T11:18:38;31.07;;;18.43;;
60730;SDS011;46580;52.114;11.674;2023-04-16T11:21:08;30.00;;;17.07;;
60730;SDS011;46580;52.114;11.674;2023-04-16T11:23:44;27.00;;;16.80;;
60730;SDS011;46580;52.114;11.674;2023-04-16T11:26:18;29.67;;;17.37;;
60730;SDS011;46580;52.114;11.674;2023-04-16T11:28:45;26.83;;;17.30;;
60730;SDS011;46580;52.114;11.674;2023-04-16T11:31:10;31.27;;;18.40;;
60730;SDS011;46580;52.114;11.674;2023-04-16T11:33:36;26.03;;;16.23;;
60730;SDS011;46580;52.114;11.674;2023-04-16T11:36:02;17.57;;;12.30;;
60730;SDS011;46580;52.114;11.674;2023-04-16T11:38:34;21.47;;;12.17;;
60730;SDS011;46580;52.114;11.674;2023-04-16T11:41:00;19.43;;;12.30;;
60730;SDS011;46580;52.114;11.674;2023-04-16T11:43:26;18.13;;;11.83;;
60730;SDS011;46580;52.114;11.674;2023-04-16T11:48:21;23.10;;;15.30;;
60730;SDS011;46580;52.114;11.674;2023-04-16T11:50:53;17.87;;;12.40;;
60730;SDS011;46580;52.114;11.674;2023-04-16T11:53:19;24.77;;;14.23;;
60730;SDS011;46580;52.114;11.674;2023-04-16T11:55:45;22.50;;;14.87;;
60730;SDS011;46580;52.114;11.674;2023-04-16T11:58:13;24.10;;;12.37;;
60730;SDS011;46580;52.114;11.674;2023-04-16T12:00:41;19.30;;;13.10;;
60730;SDS011;46580;52.114;11.674;2023-04-16T12:03:07;18.67;;;12.27;;
60730;SDS011;46580;52.114;11.674;2023-04-16T12:05:36;18.50;;;12.90;;
60730;SDS011;46580;52.114;11.674;2023-04-16T12:08:04;23.47;;;14.17;;
60730;SDS011;46580;52.114;11.674;2023-04-16T12:10:34;21.20;;;13.30;;
60730;SDS011;46580;52.114;11.674;2023-04-16T12:13:11;20.30;;;11.63;;
60730;SDS011;46580;52.114;11.674;2023-04-16T12:15:46;19.13;;;12.50;;
60730;SDS011;46580;52.114;11.674;2023-04-16T12:18:15;19.07;;;11.80;;
60730;SDS011;46580;52.114;11.674;2023-04-16T12:20:42;18.53;;;9.97;;
60730;SDS011;46580;52.114;11.674;2023-04-16T12:23:09;17.00;;;11.00;;
60730;SDS011;46580;52.114;11.674;2023-04-16T12:25:45;17.37;;;11.30;;
60730;SDS011;46580;52.114;11.674;2023-04-16T12:28:32;19.20;;;11.70;;
60730;SDS011;46580;52.114;11.674;2023-04-16T12:31:00;21.37;;;11.87;;
60730;SDS011;46580;52.114;11.674;2023-04-16T12:33:26;17.50;;;10.40;;
60730;SDS011;46580;52.114;11.674;2023-04-16T12:35:52;18.07;;;11.93;;
60730;SDS011;46580;52.114;11.674;2023-04-16T12:38:18;15.77;;;11.27;;
60730;SDS011;46580;52.114;11.674;2023-04-16T12:40:43;18.87;;;11.50;;
60730;SDS011;46580;52.114;11.674;2023-04-16T12:43:09;17.10;;;10.47;;
60730;SDS011;46580;52.114;11.674;2023-04-16T12:45:34;15.20;;;10.43;;
60730;SDS011;46580;52.114;11.674;2023-04-16T12:48:00;17.70;;;11.40;;
60730;SDS011;46580;52.114;11.674;2023-04-16T12:50:25;16.90;;;10.70;;
60730;SDS011;46580;52.114;11.674;2023-04-16T12:52:52;17.93;;;11.33;;
60730;SDS011;46580;52.114;11.674;2023-04-16T12:55:19;20.10;;;11.93;;
60730;SDS011;46580;52.114;11.674;2023-04-16T12:57:44;16.53;;;11.13;;
60730;SDS011;46580;52.114;11.674;2023-04-16T13:00:12;17.60;;;11.83;;
60730;SDS011;46580;52.114;11.674;2023-04-16T13:02:38;19.83;;;11.80;;
60730;SDS011;46580;52.114;11.674;2023-04-16T13:05:05;20.40;;;12.23;;
60730;SDS011;46580;52.114;11.674;2023-04-16T13:07:31;21.70;;;11.40;;
60730;SDS011;46580;52.114;11.674;2023-04-16T13:09:58;16.97;;;12.20;;
60730;SDS011;46580;52.114;11.674;2023-04-16T13:12:24;21.03;;;12.60;;
60730;SDS011;46580;52.114;11.674;2023-04-16T13:14:50;21.70;;;11.87;;
60730;SDS011;46580;52.114;11.674;2023-04-16T13:17:16;18.87;;;12.13;;
60730;SDS011;46580;52.114;11.674;2023-04-16T13:19:41;19.00;;;11.67;;
60730;SDS011;46580;52.114;11.674;2023-04-16T13:22:07;19.80;;;12.07;;
60730;SDS011;46580;52.114;11.674;2023-04-16T13:24:33;18.40;;;12.67;;
60730;SDS011;46580;52.114;11.674;2023-04-16T13:26:58;20.67;;;12.70;;
60730;SDS011;46580;52.114;11.674;2023-04-16T13:29:24;20.13;;;12.63;;
60730;SDS011;46580;52.114;11.674;2023-04-16T13:31:49;21.20;;;14.17;;
60730;SDS011;46580;52.114;11.674;2023-04-16T13:34:15;19.70;;;12.63;;
60730;SDS011;46580;52.114;11.674;2023-04-16T13:36:40;21.00;;;12.70;;
60730;SDS011;46580;52.114;11.674;2023-04-16T13:39:05;17.77;;;11.97;;
60730;SDS011;46580;52.114;11.674;2023-04-16T13:41:38;20.33;;;12.37;;
60730;SDS011;46580;52.114;11.674;2023-04-16T13:44:04;16.57;;;11.37;;
60730;SDS011;46580;52.114;11.674;2023-04-16T13:46:29;17.40;;;12.10;;
60730;SDS011;46580;52.114;11.674;2023-04-16T13:48:55;21.23;;;11.87;;
60730;SDS011;46580;52.114;11.674;2023-04-16T13:51:20;18.77;;;11.73;;
60730;SDS011;46580;52.114;11.674;2023-04-16T13:53:46;16.63;;;11.90;;
60730;SDS011;46580;52.114;11.674;2023-04-16T13:56:12;21.90;;;12.90;;
60730;SDS011;46580;52.114;11.674;2023-04-16T13:58:37;18.23;;;12.37;;
60730;SDS011;46580;52.114;11.674;2023-04-16T14:01:03;22.23;;;13.20;;
60730;SDS011;46580;52.114;11.674;2023-04-16T14:03:28;20.73;;;12.83;;
60730;SDS011;46580;52.114;11.674;2023-04-16T14:05:59;19.70;;;12.67;;
60730;SDS011;46580;52.114;11.674;2023-04-16T14:08:26;21.80;;;12.57;;